sensor_id;sensor_type;location;lat;lon;timestamp;P1;durP1;ratioP1;P2;durP2;ratioP2
40453;SDS011;26160;51.858;4.398;2023-07-02T00:01:55;16.27;;;7.22;;
40453;SDS011;26160;51.858;4.398;2023-07-02T00:04:22;14.35;;;7.63;;
40453;SDS011;26160;51.858;4.398;2023-07-02T00:06:48;20.73;;;6.72;;
40453;SDS011;26160;51.858;4.398;2023-07-02T00:09:14;22.23;;;7.68;;
40453;SDS011;26160;51.858;4.398;2023-07-02T00:11:42;23.15;;;7.75;;
40453;SDS011;26160;51.858;4.398;2023-07-02T00:14:11;15.40;;;6.55;;
40453;SDS011;26160;51.858;4.398;2023-07-02T00:16:39;17.60;;;7.28;;
40453;SDS011;26160;51.858;4.398;2023-07-02T00:19:08;19.80;;;7.70;;
40453;SDS011;26160;51.858;4.398;2023-07-02T00:21:34;17.08;;;6.75;;
40453;SDS011;26160;51.858;4.398;2023-07-02T00:24:02;15.40;;;6.10;;
40453;SDS011;26160;51.858;4.398;2023-07-02T00:26:29;14.07;;;7.05;;
40453;SDS011;26160;51.858;4.398;2023-07-02T00:28:55;16.35;;;7.68;;
40453;SDS011;26160;51.858;4.398;2023-07-02T00:31:22;18.27;;;7.20;;
40453;SDS011;26160;51.858;4.398;2023-07-02T00:33:49;19.65;;;8.00;;
40453;SDS011;26160;51.858;4.398;2023-07-02T00:36:16;16.65;;;7.63;;
40453;SDS011;26160;51.858;4.398;2023-07-02T00:38:42;20.75;;;8.32;;
40453;SDS011;26160;51.858;4.398;2023-07-02T00:41:12;18.25;;;7.60;;
40453;SDS011;26160;51.858;4.398;2023-07-02T00:43:39;25.17;;;8.35;;
40453;SDS011;26160;51.858;4.398;2023-07-02T00:46:18;19.98;;;7.55;;
40453;SDS011;26160;51.858;4.398;2023-07-02T00:48:48;19.27;;;8.68;;
40453;SDS011;26160;51.858;4.398;2023-07-02T00:51:19;20.05;;;7.80;;
40453;SDS011;26160;51.858;4.398;2023-07-02T00:53:51;22.02;;;8.45;;
40453;SDS011;26160;51.858;4.398;2023-07-02T00:56:20;21.35;;;8.48;;
40453;SDS011;26160;51.858;4.398;2023-07-02T00:58:48;18.25;;;7.47;;
40453;SDS011;26160;51.858;4.398;2023-07-02T01:03:57;22.15;;;7.70;;
40453;SDS011;26160;51.858;4.398;2023-07-02T01:06:26;23.58;;;7.40;;
40453;SDS011;26160;51.858;4.398;2023-07-02T01:08:54;23.25;;;7.93;;
40453;SDS011;26160;51.858;4.398;2023-07-02T01:11:23;18.55;;;7.40;;
40453;SDS011;26160;51.858;4.398;2023-07-02T01:14:02;15.63;;;7.45;;
40453;SDS011;26160;51.858;4.398;2023-07-02T01:19:11;17.95;;;7.32;;
40453;SDS011;26160;51.858;4.398;2023-07-02T01:21:46;26.88;;;8.40;;
40453;SDS011;26160;51.858;4.398;2023-07-02T01:24:13;20.88;;;8.45;;
40453;SDS011;26160;51.858;4.398;2023-07-02T01:26:40;21.02;;;8.95;;
40453;SDS011;26160;51.858;4.398;2023-07-02T01:29:15;17.10;;;7.95;;
40453;SDS011;26160;51.858;4.398;2023-07-02T01:31:45;21.77;;;8.35;;
40453;SDS011;26160;51.858;4.398;2023-07-02T01:34:12;21.17;;;8.50;;
40453;SDS011;26160;51.858;4.398;2023-07-02T01:36:39;20.63;;;8.57;;
40453;SDS011;26160;51.858;4.398;2023-07-02T01:39:06;22.58;;;8.73;;
40453;SDS011;26160;51.858;4.398;2023-07-02T01:41:51;24.30;;;8.63;;
40453;SDS011;26160;51.858;4.398;2023-07-02T01:44:18;22.23;;;7.63;;
40453;SDS011;26160;51.858;4.398;2023-07-02T01:46:45;20.98;;;7.90;;
40453;SDS011;26160;51.858;4.398;2023-07-02T01:49:15;20.65;;;7.65;;
40453;SDS011;26160;51.858;4.398;2023-07-02T01:51:44;23.75;;;8.18;;
40453;SDS011;26160;51.858;4.398;2023-07-02T01:54:21;22.25;;;8.00;;
40453;SDS011;26160;51.858;4.398;2023-07-02T01:56:48;21.65;;;7.88;;
40453;SDS011;26160;51.858;4.398;2023-07-02T01:59:14;19.35;;;8.20;;
40453;SDS011;26160;51.858;4.398;2023-07-02T02:01:42;20.13;;;8.15;;
40453;SDS011;26160;51.858;4.398;2023-07-02T02:04:08;18.40;;;7.82;;
40453;SDS011;26160;51.858;4.398;2023-07-02T02:06:37;22.75;;;8.25;;
40453;SDS011;26160;51.858;4.398;2023-07-02T02:09:05;24.70;;;8.95;;
40453;SDS011;26160;51.858;4.398;2023-07-02T02:11:31;19.17;;;8.07;;
40453;SDS011;26160;51.858;4.398;2023-07-02T02:14:01;19.90;;;7.30;;
40453;SDS011;26160;51.858;4.398;2023-07-02T02:16:27;19.42;;;8.20;;
40453;SDS011;26160;51.858;4.398;2023-07-02T02:18:54;20.30;;;7.85;;
40453;SDS011;26160;51.858;4.398;2023-07-02T02:21:20;22.02;;;8.73;;
40453;SDS011;26160;51.858;4.398;2023-07-02T02:23:47;19.55;;;8.68;;
40453;SDS011;26160;51.858;4.398;2023-07-02T02:26:14;20.58;;;7.82;;
40453;SDS011;26160;51.858;4.398;2023-07-02T02:28:42;22.58;;;8.25;;
40453;SDS011;26160;51.858;4.398;2023-07-02T02:31:08;18.90;;;7.63;;
40453;SDS011;26160;51.858;4.398;2023-07-02T02:33:34;22.95;;;8.30;;
40453;SDS011;26160;51.858;4.398;2023-07-02T02:36:02;24.40;;;8.25;;
40453;SDS011;26160;51.858;4.398;2023-07-02T02:38:28;26.77;;;9.35;;
40453;SDS011;26160;51.858;4.398;2023-07-02T02:40:54;18.10;;;7.85;;
40453;SDS011;26160;51.858;4.398;2023-07-02T02:43:20;22.85;;;8.70;;
40453;SDS011;26160;51.858;4.398;2023-07-02T02:45:48;25.00;;;8.45;;
40453;SDS011;26160;51.858;4.398;2023-07-02T02:48:14;15.05;;;7.18;;
40453;SDS011;26160;51.858;4.398;2023-07-02T02:50:40;24.20;;;8.60;;
40453;SDS011;26160;51.858;4.398;2023-07-02T02:53:08;24.73;;;8.55;;
40453;SDS011;26160;51.858;4.398;2023-07-02T02:55:38;23.65;;;8.90;;
40453;SDS011;26160;51.858;4.398;2023-07-02T02:58:04;24.20;;;8.18;;
40453;SDS011;26160;51.858;4.398;2023-07-02T03:00:30;18.08;;;7.70;;
40453;SDS011;26160;51.858;4.398;2023-07-02T03:02:56;22.83;;;8.48;;
40453;SDS011;26160;51.858;4.398;2023-07-02T03:05:23;23.10;;;8.93;;
40453;SDS011;26160;51.858;4.398;2023-07-02T03:07:50;20.13;;;7.68;;
40453;SDS011;26160;51.858;4.398;2023-07-02T03:10:17;23.83;;;8.10;;
40453;SDS011;26160;51.858;4.398;2023-07-02T03:12:43;21.42;;;7.72;;
40453;SDS011;26160;51.858;4.398;2023-07-02T03:15:09;24.40;;;8.10;;
40453;SDS011;26160;51.858;4.398;2023-07-02T03:17:35;24.20;;;8.20;;
40453;SDS011;26160;51.858;4.398;2023-07-02T03:20:02;22.10;;;7.95;;
40453;SDS011;26160;51.858;4.398;2023-07-02T03:22:44;20.13;;;8.35;;
40453;SDS011;26160;51.858;4.398;2023-07-02T03:25:11;30.17;;;8.70;;
40453;SDS011;26160;51.858;4.398;2023-07-02T03:27:38;22.08;;;7.88;;
40453;SDS011;26160;51.858;4.398;2023-07-02T03:30:04;25.75;;;8.85;;
40453;SDS011;26160;51.858;4.398;2023-07-02T03:32:31;20.75;;;8.05;;
40453;SDS011;26160;51.858;4.398;2023-07-02T03:34:57;21.02;;;7.82;;
40453;SDS011;26160;51.858;4.398;2023-07-02T03:37:23;25.17;;;8.98;;
40453;SDS011;26160;51.858;4.398;2023-07-02T03:39:49;18.00;;;7.85;;
40453;SDS011;26160;51.858;4.398;2023-07-02T03:42:15;23.08;;;8.45;;
40453;SDS011;26160;51.858;4.398;2023-07-02T03:44:42;24.70;;;8.40;;
40453;SDS011;26160;51.858;4.398;2023-07-02T03:47:08;23.13;;;8.98;;
40453;SDS011;26160;51.858;4.398;2023-07-02T03:49:34;28.92;;;9.05;;
40453;SDS011;26160;51.858;4.398;2023-07-02T03:52:00;18.30;;;7.93;;
40453;SDS011;26160;51.858;4.398;2023-07-02T03:54:28;21.83;;;8.00;;
40453;SDS011;26160;51.858;4.398;2023-07-02T03:57:11;19.17;;;6.97;;
40453;SDS011;26160;51.858;4.398;2023-07-02T03:59:37;19.58;;;7.15;;
40453;SDS011;26160;51.858;4.398;2023-07-02T04:02:04;17.42;;;6.50;;
40453;SDS011;26160;51.858;4.398;2023-07-02T04:04:30;20.35;;;7.43;;
40453;SDS011;26160;51.858;4.398;2023-07-02T04:06:56;19.42;;;7.43;;
40453;SDS011;26160;51.858;4.398;2023-07-02T04:09:22;16.80;;;6.60;;
40453;SDS011;26160;51.858;4.398;2023-07-02T04:11:49;22.55;;;7.70;;
40453;SDS011;26160;51.858;4.398;2023-07-02T04:14:15;22.90;;;7.60;;
40453;SDS011;26160;51.858;4.398;2023-07-02T04:16:43;22.63;;;6.85;;
40453;SDS011;26160;51.858;4.398;2023-07-02T04:19:10;16.88;;;6.75;;
40453;SDS011;26160;51.858;4.398;2023-07-02T04:21:36;18.45;;;6.97;;
40453;SDS011;26160;51.858;4.398;2023-07-02T04:24:02;16.83;;;6.45;;
40453;SDS011;26160;51.858;4.398;2023-07-02T04:26:29;15.55;;;6.22;;
40453;SDS011;26160;51.858;4.398;2023-07-02T04:28:56;15.05;;;6.20;;
40453;SDS011;26160;51.858;4.398;2023-07-02T04:31:22;19.70;;;6.90;;
40453;SDS011;26160;51.858;4.398;2023-07-02T04:33:48;19.90;;;7.32;;
40453;SDS011;26160;51.858;4.398;2023-07-02T04:36:14;17.85;;;7.28;;
40453;SDS011;26160;51.858;4.398;2023-07-02T04:38:40;17.80;;;6.90;;
40453;SDS011;26160;51.858;4.398;2023-07-02T04:41:06;23.00;;;6.68;;
40453;SDS011;26160;51.858;4.398;2023-07-02T04:43:35;17.92;;;6.10;;
40453;SDS011;26160;51.858;4.398;2023-07-02T04:46:02;15.43;;;6.32;;
40453;SDS011;26160;51.858;4.398;2023-07-02T04:48:28;17.63;;;7.03;;
40453;SDS011;26160;51.858;4.398;2023-07-02T04:50:54;15.63;;;6.13;;
40453;SDS011;26160;51.858;4.398;2023-07-02T04:53:20;17.02;;;6.10;;
40453;SDS011;26160;51.858;4.398;2023-07-02T04:55:46;15.60;;;6.32;;
40453;SDS011;26160;51.858;4.398;2023-07-02T04:58:13;17.02;;;5.93;;
40453;SDS011;26160;51.858;4.398;2023-07-02T05:00:39;21.58;;;6.20;;
40453;SDS011;26160;51.858;4.398;2023-07-02T05:03:05;18.67;;;6.15;;
40453;SDS011;26160;51.858;4.398;2023-07-02T05:05:31;27.08;;;6.55;;
40453;SDS011;26160;51.858;4.398;2023-07-02T05:07:57;17.45;;;5.22;;
40453;SDS011;26160;51.858;4.398;2023-07-02T05:10:23;16.98;;;6.50;;
40453;SDS011;26160;51.858;4.398;2023-07-02T05:12:50;14.73;;;6.28;;
40453;SDS011;26160;51.858;4.398;2023-07-02T05:15:16;17.60;;;5.60;;
40453;SDS011;26160;51.858;4.398;2023-07-02T05:17:42;16.95;;;5.93;;
40453;SDS011;26160;51.858;4.398;2023-07-02T05:20:08;15.27;;;6.18;;
40453;SDS011;26160;51.858;4.398;2023-07-02T05:22:35;12.90;;;6.13;;
40453;SDS011;26160;51.858;4.398;2023-07-02T05:25:01;17.65;;;6.35;;
40453;SDS011;26160;51.858;4.398;2023-07-02T05:27:27;17.05;;;6.32;;
40453;SDS011;26160;51.858;4.398;2023-07-02T05:29:53;15.98;;;6.18;;
40453;SDS011;26160;51.858;4.398;2023-07-02T05:32:19;18.35;;;7.03;;
40453;SDS011;26160;51.858;4.398;2023-07-02T05:34:46;17.60;;;6.65;;
40453;SDS011;26160;51.858;4.398;2023-07-02T05:37:12;22.50;;;7.65;;
40453;SDS011;26160;51.858;4.398;2023-07-02T05:39:38;18.25;;;6.55;;
40453;SDS011;26160;51.858;4.398;2023-07-02T05:42:04;18.98;;;7.10;;
40453;SDS011;26160;51.858;4.398;2023-07-02T05:44:30;17.55;;;7.28;;
40453;SDS011;26160;51.858;4.398;2023-07-02T05:46:56;16.63;;;6.63;;
40453;SDS011;26160;51.858;4.398;2023-07-02T05:49:22;22.90;;;7.35;;
40453;SDS011;26160;51.858;4.398;2023-07-02T05:51:49;14.65;;;6.05;;
40453;SDS011;26160;51.858;4.398;2023-07-02T05:54:15;16.90;;;6.80;;
40453;SDS011;26160;51.858;4.398;2023-07-02T05:56:41;18.20;;;6.63;;
40453;SDS011;26160;51.858;4.398;2023-07-02T05:59:07;19.13;;;6.38;;
40453;SDS011;26160;51.858;4.398;2023-07-02T06:01:33;15.32;;;6.22;;
40453;SDS011;26160;51.858;4.398;2023-07-02T06:03:59;15.10;;;6.22;;
40453;SDS011;26160;51.858;4.398;2023-07-02T06:06:26;18.10;;;6.25;;
40453;SDS011;26160;51.858;4.398;2023-07-02T06:08:52;16.80;;;6.47;;
40453;SDS011;26160;51.858;4.398;2023-07-02T06:11:18;22.27;;;6.10;;
40453;SDS011;26160;51.858;4.398;2023-07-02T06:13:44;13.70;;;5.65;;
40453;SDS011;26160;51.858;4.398;2023-07-02T06:16:10;18.50;;;6.40;;
40453;SDS011;26160;51.858;4.398;2023-07-02T06:18:36;19.30;;;6.47;;
40453;SDS011;26160;51.858;4.398;2023-07-02T06:21:03;15.30;;;5.75;;
40453;SDS011;26160;51.858;4.398;2023-07-02T06:23:29;15.82;;;6.00;;
40453;SDS011;26160;51.858;4.398;2023-07-02T06:26:04;16.27;;;6.03;;
40453;SDS011;26160;51.858;4.398;2023-07-02T06:28:30;17.27;;;6.18;;
40453;SDS011;26160;51.858;4.398;2023-07-02T06:30:56;16.83;;;6.18;;
40453;SDS011;26160;51.858;4.398;2023-07-02T06:33:22;16.38;;;6.47;;
40453;SDS011;26160;51.858;4.398;2023-07-02T06:35:49;15.70;;;5.45;;
40453;SDS011;26160;51.858;4.398;2023-07-02T06:38:15;15.02;;;6.32;;
40453;SDS011;26160;51.858;4.398;2023-07-02T06:40:41;14.25;;;5.90;;
40453;SDS011;26160;51.858;4.398;2023-07-02T06:43:07;17.02;;;5.97;;
40453;SDS011;26160;51.858;4.398;2023-07-02T06:45:34;13.68;;;5.72;;
40453;SDS011;26160;51.858;4.398;2023-07-02T06:48:00;14.85;;;5.80;;
40453;SDS011;26160;51.858;4.398;2023-07-02T06:50:27;20.70;;;6.50;;
40453;SDS011;26160;51.858;4.398;2023-07-02T06:52:54;18.50;;;6.82;;
40453;SDS011;26160;51.858;4.398;2023-07-02T06:55:20;15.13;;;6.00;;
40453;SDS011;26160;51.858;4.398;2023-07-02T06:57:46;20.27;;;5.80;;
40453;SDS011;26160;51.858;4.398;2023-07-02T07:00:13;19.60;;;6.00;;
40453;SDS011;26160;51.858;4.398;2023-07-02T07:02:39;14.85;;;6.13;;
40453;SDS011;26160;51.858;4.398;2023-07-02T07:05:05;14.13;;;5.75;;
40453;SDS011;26160;51.858;4.398;2023-07-02T07:07:32;17.77;;;6.07;;
40453;SDS011;26160;51.858;4.398;2023-07-02T07:09:58;16.98;;;5.55;;
40453;SDS011;26160;51.858;4.398;2023-07-02T07:12:24;15.13;;;5.55;;
40453;SDS011;26160;51.858;4.398;2023-07-02T07:14:50;15.43;;;5.55;;
40453;SDS011;26160;51.858;4.398;2023-07-02T07:17:16;12.70;;;5.32;;
40453;SDS011;26160;51.858;4.398;2023-07-02T07:19:42;13.93;;;5.97;;
40453;SDS011;26160;51.858;4.398;2023-07-02T07:22:09;12.68;;;5.57;;
40453;SDS011;26160;51.858;4.398;2023-07-02T07:24:35;20.58;;;6.57;;
40453;SDS011;26160;51.858;4.398;2023-07-02T07:27:01;14.10;;;5.65;;
40453;SDS011;26160;51.858;4.398;2023-07-02T07:29:27;13.90;;;5.65;;
40453;SDS011;26160;51.858;4.398;2023-07-02T07:31:54;14.35;;;6.18;;
40453;SDS011;26160;51.858;4.398;2023-07-02T07:34:20;12.48;;;5.07;;
40453;SDS011;26160;51.858;4.398;2023-07-02T07:36:46;11.55;;;5.32;;
40453;SDS011;26160;51.858;4.398;2023-07-02T07:39:12;13.45;;;5.80;;
40453;SDS011;26160;51.858;4.398;2023-07-02T07:41:41;13.07;;;5.53;;
40453;SDS011;26160;51.858;4.398;2023-07-02T07:44:09;15.90;;;5.97;;
40453;SDS011;26160;51.858;4.398;2023-07-02T07:46:36;15.27;;;5.80;;
40453;SDS011;26160;51.858;4.398;2023-07-02T07:49:02;19.08;;;5.53;;
40453;SDS011;26160;51.858;4.398;2023-07-02T07:51:29;13.00;;;5.60;;
40453;SDS011;26160;51.858;4.398;2023-07-02T07:53:56;14.82;;;5.55;;
40453;SDS011;26160;51.858;4.398;2023-07-02T07:56:22;18.55;;;6.15;;
40453;SDS011;26160;51.858;4.398;2023-07-02T07:58:48;18.70;;;6.13;;
40453;SDS011;26160;51.858;4.398;2023-07-02T08:01:14;14.98;;;6.30;;
40453;SDS011;26160;51.858;4.398;2023-07-02T08:03:40;16.55;;;6.05;;
40453;SDS011;26160;51.858;4.398;2023-07-02T08:06:06;17.23;;;6.25;;
40453;SDS011;26160;51.858;4.398;2023-07-02T08:08:32;16.67;;;6.32;;
40453;SDS011;26160;51.858;4.398;2023-07-02T08:10:59;18.48;;;6.25;;
40453;SDS011;26160;51.858;4.398;2023-07-02T08:13:25;14.38;;;6.90;;
40453;SDS011;26160;51.858;4.398;2023-07-02T08:15:51;14.38;;;5.88;;
40453;SDS011;26160;51.858;4.398;2023-07-02T08:18:17;17.50;;;6.40;;
40453;SDS011;26160;51.858;4.398;2023-07-02T08:20:43;12.15;;;5.40;;
40453;SDS011;26160;51.858;4.398;2023-07-02T08:23:09;16.25;;;5.88;;
40453;SDS011;26160;51.858;4.398;2023-07-02T08:25:37;15.07;;;6.18;;
40453;SDS011;26160;51.858;4.398;2023-07-02T08:28:03;11.20;;;4.15;;
40453;SDS011;26160;51.858;4.398;2023-07-02T08:30:29;12.20;;;5.35;;
40453;SDS011;26160;51.858;4.398;2023-07-02T08:32:56;9.25;;;5.07;;
40453;SDS011;26160;51.858;4.398;2023-07-02T08:35:22;11.68;;;4.15;;
40453;SDS011;26160;51.858;4.398;2023-07-02T08:37:49;9.13;;;3.90;;
40453;SDS011;26160;51.858;4.398;2023-07-02T08:40:18;8.98;;;3.85;;
40453;SDS011;26160;51.858;4.398;2023-07-02T08:42:45;8.57;;;3.65;;
40453;SDS011;26160;51.858;4.398;2023-07-02T08:45:15;9.02;;;3.53;;
40453;SDS011;26160;51.858;4.398;2023-07-02T08:47:43;7.65;;;3.60;;
40453;SDS011;26160;51.858;4.398;2023-07-02T08:50:11;11.82;;;3.80;;
40453;SDS011;26160;51.858;4.398;2023-07-02T08:52:38;10.57;;;3.83;;
40453;SDS011;26160;51.858;4.398;2023-07-02T08:55:05;8.73;;;3.63;;
40453;SDS011;26160;51.858;4.398;2023-07-02T08:57:31;7.55;;;2.83;;
40453;SDS011;26160;51.858;4.398;2023-07-02T08:59:58;10.02;;;4.85;;
40453;SDS011;26160;51.858;4.398;2023-07-02T09:02:33;7.30;;;3.35;;
40453;SDS011;26160;51.858;4.398;2023-07-02T09:05:00;9.32;;;3.92;;
40453;SDS011;26160;51.858;4.398;2023-07-02T09:07:27;7.32;;;3.47;;
40453;SDS011;26160;51.858;4.398;2023-07-02T09:09:53;7.28;;;3.40;;
40453;SDS011;26160;51.858;4.398;2023-07-02T09:12:29;10.02;;;3.50;;
40453;SDS011;26160;51.858;4.398;2023-07-02T09:14:57;4.35;;;2.72;;
40453;SDS011;26160;51.858;4.398;2023-07-02T09:17:37;7.03;;;3.10;;
40453;SDS011;26160;51.858;4.398;2023-07-02T09:20:04;6.93;;;3.08;;
40453;SDS011;26160;51.858;4.398;2023-07-02T09:22:32;8.68;;;3.30;;
40453;SDS011;26160;51.858;4.398;2023-07-02T09:25:00;6.05;;;3.10;;
40453;SDS011;26160;51.858;4.398;2023-07-02T09:27:34;9.25;;;3.17;;
40453;SDS011;26160;51.858;4.398;2023-07-02T09:32:45;9.75;;;3.40;;
40453;SDS011;26160;51.858;4.398;2023-07-02T09:35:11;7.68;;;2.95;;
40453;SDS011;26160;51.858;4.398;2023-07-02T09:37:38;6.15;;;3.00;;
40453;SDS011;26160;51.858;4.398;2023-07-02T09:40:08;6.68;;;3.38;;
40453;SDS011;26160;51.858;4.398;2023-07-02T09:42:35;10.40;;;3.40;;
40453;SDS011;26160;51.858;4.398;2023-07-02T09:45:06;6.40;;;3.08;;
40453;SDS011;26160;51.858;4.398;2023-07-02T09:47:35;8.07;;;3.35;;
40453;SDS011;26160;51.858;4.398;2023-07-02T09:50:06;8.27;;;3.47;;
40453;SDS011;26160;51.858;4.398;2023-07-02T09:52:34;5.30;;;2.38;;
40453;SDS011;26160;51.858;4.398;2023-07-02T09:55:01;5.15;;;2.65;;
40453;SDS011;26160;51.858;4.398;2023-07-02T09:57:29;7.60;;;2.63;;
40453;SDS011;26160;51.858;4.398;2023-07-02T09:59:58;6.60;;;3.33;;
40453;SDS011;26160;51.858;4.398;2023-07-02T10:02:26;9.57;;;3.78;;
40453;SDS011;26160;51.858;4.398;2023-07-02T10:04:52;7.50;;;3.17;;
40453;SDS011;26160;51.858;4.398;2023-07-02T10:07:27;6.50;;;3.67;;
40453;SDS011;26160;51.858;4.398;2023-07-02T10:09:57;7.40;;;3.55;;
40453;SDS011;26160;51.858;4.398;2023-07-02T10:14:51;8.45;;;3.53;;
40453;SDS011;26160;51.858;4.398;2023-07-02T10:17:26;10.02;;;3.55;;
40453;SDS011;26160;51.858;4.398;2023-07-02T10:19:54;6.55;;;3.80;;
40453;SDS011;26160;51.858;4.398;2023-07-02T10:22:22;9.68;;;3.47;;
40453;SDS011;26160;51.858;4.398;2023-07-02T10:27:18;8.73;;;3.47;;
40453;SDS011;26160;51.858;4.398;2023-07-02T10:29:51;6.88;;;3.72;;
40453;SDS011;26160;51.858;4.398;2023-07-02T10:32:26;7.78;;;4.10;;
40453;SDS011;26160;51.858;4.398;2023-07-02T10:34:56;7.80;;;3.78;;
40453;SDS011;26160;51.858;4.398;2023-07-02T10:37:24;9.02;;;4.20;;
40453;SDS011;26160;51.858;4.398;2023-07-02T10:39:50;8.98;;;4.03;;
40453;SDS011;26160;51.858;4.398;2023-07-02T10:42:17;12.40;;;5.10;;
40453;SDS011;26160;51.858;4.398;2023-07-02T10:44:48;12.57;;;4.65;;
40453;SDS011;26160;51.858;4.398;2023-07-02T10:47:16;9.05;;;4.05;;
40453;SDS011;26160;51.858;4.398;2023-07-02T10:49:45;11.82;;;4.60;;
40453;SDS011;26160;51.858;4.398;2023-07-02T10:52:12;12.23;;;4.72;;
40453;SDS011;26160;51.858;4.398;2023-07-02T10:54:45;9.32;;;4.80;;
40453;SDS011;26160;51.858;4.398;2023-07-02T10:57:17;10.75;;;4.30;;
40453;SDS011;26160;51.858;4.398;2023-07-02T10:59:47;10.80;;;4.72;;
40453;SDS011;26160;51.858;4.398;2023-07-02T11:02:14;8.73;;;4.97;;
40453;SDS011;26160;51.858;4.398;2023-07-02T11:04:41;12.02;;;4.43;;
40453;SDS011;26160;51.858;4.398;2023-07-02T11:07:07;13.57;;;5.35;;
40453;SDS011;26160;51.858;4.398;2023-07-02T11:09:35;10.75;;;4.88;;
40453;SDS011;26160;51.858;4.398;2023-07-02T11:12:01;11.00;;;5.85;;
40453;SDS011;26160;51.858;4.398;2023-07-02T11:14:28;13.05;;;5.10;;
40453;SDS011;26160;51.858;4.398;2023-07-02T11:17:00;10.75;;;4.28;;
40453;SDS011;26160;51.858;4.398;2023-07-02T11:19:34;9.57;;;4.47;;
40453;SDS011;26160;51.858;4.398;2023-07-02T11:22:01;11.70;;;4.95;;
40453;SDS011;26160;51.858;4.398;2023-07-02T11:24:35;9.70;;;4.63;;
40453;SDS011;26160;51.858;4.398;2023-07-02T11:27:03;13.18;;;5.15;;
40453;SDS011;26160;51.858;4.398;2023-07-02T11:29:35;14.13;;;4.57;;
40453;SDS011;26160;51.858;4.398;2023-07-02T11:32:09;9.82;;;4.30;;
40453;SDS011;26160;51.858;4.398;2023-07-02T11:34:37;11.23;;;4.95;;
40453;SDS011;26160;51.858;4.398;2023-07-02T11:37:04;10.02;;;4.57;;
40453;SDS011;26160;51.858;4.398;2023-07-02T11:39:31;11.68;;;4.80;;
40453;SDS011;26160;51.858;4.398;2023-07-02T11:41:57;10.75;;;4.85;;
40453;SDS011;26160;51.858;4.398;2023-07-02T11:44:24;7.88;;;4.57;;
40453;SDS011;26160;51.858;4.398;2023-07-02T11:46:50;9.02;;;4.60;;
40453;SDS011;26160;51.858;4.398;2023-07-02T11:49:16;12.07;;;4.70;;
40453;SDS011;26160;51.858;4.398;2023-07-02T11:51:43;10.00;;;5.13;;
40453;SDS011;26160;51.858;4.398;2023-07-02T11:54:16;8.45;;;4.35;;
40453;SDS011;26160;51.858;4.398;2023-07-02T11:56:44;7.18;;;4.28;;
40453;SDS011;26160;51.858;4.398;2023-07-02T11:59:10;9.27;;;4.38;;
40453;SDS011;26160;51.858;4.398;2023-07-02T12:01:37;9.05;;;4.45;;
40453;SDS011;26160;51.858;4.398;2023-07-02T12:04:03;9.20;;;4.85;;
40453;SDS011;26160;51.858;4.398;2023-07-02T12:06:31;10.63;;;4.85;;
40453;SDS011;26160;51.858;4.398;2023-07-02T12:08:57;9.05;;;4.28;;
40453;SDS011;26160;51.858;4.398;2023-07-02T12:11:23;8.40;;;4.50;;
40453;SDS011;26160;51.858;4.398;2023-07-02T12:13:49;6.82;;;4.25;;
40453;SDS011;26160;51.858;4.398;2023-07-02T12:16:15;11.98;;;4.75;;
40453;SDS011;26160;51.858;4.398;2023-07-02T12:18:41;8.77;;;4.20;;
40453;SDS011;26160;51.858;4.398;2023-07-02T12:21:08;7.63;;;3.70;;
40453;SDS011;26160;51.858;4.398;2023-07-02T12:23:35;11.65;;;4.40;;
40453;SDS011;26160;51.858;4.398;2023-07-02T12:26:01;9.10;;;4.50;;
40453;SDS011;26160;51.858;4.398;2023-07-02T12:28:27;11.43;;;4.57;;
40453;SDS011;26160;51.858;4.398;2023-07-02T12:30:54;11.30;;;4.40;;
40453;SDS011;26160;51.858;4.398;2023-07-02T12:33:20;10.07;;;4.32;;
40453;SDS011;26160;51.858;4.398;2023-07-02T12:35:46;8.93;;;4.55;;
40453;SDS011;26160;51.858;4.398;2023-07-02T12:38:13;12.73;;;3.97;;
40453;SDS011;26160;51.858;4.398;2023-07-02T12:40:39;10.57;;;3.88;;
40453;SDS011;26160;51.858;4.398;2023-07-02T12:43:05;5.10;;;3.92;;
40453;SDS011;26160;51.858;4.398;2023-07-02T12:45:31;11.50;;;5.05;;
40453;SDS011;26160;51.858;4.398;2023-07-02T12:47:58;12.63;;;4.45;;
40453;SDS011;26160;51.858;4.398;2023-07-02T12:50:24;7.65;;;4.00;;
40453;SDS011;26160;51.858;4.398;2023-07-02T12:52:50;12.38;;;4.72;;
40453;SDS011;26160;51.858;4.398;2023-07-02T12:55:16;11.35;;;4.70;;
40453;SDS011;26160;51.858;4.398;2023-07-02T12:57:42;7.32;;;4.15;;
40453;SDS011;26160;51.858;4.398;2023-07-02T13:00:08;11.90;;;4.47;;
40453;SDS011;26160;51.858;4.398;2023-07-02T13:02:35;10.35;;;4.95;;
40453;SDS011;26160;51.858;4.398;2023-07-02T13:05:01;9.20;;;4.68;;
40453;SDS011;26160;51.858;4.398;2023-07-02T13:07:27;8.55;;;4.63;;
40453;SDS011;26160;51.858;4.398;2023-07-02T13:09:56;11.65;;;4.57;;
40453;SDS011;26160;51.858;4.398;2023-07-02T13:12:22;15.00;;;4.57;;
40453;SDS011;26160;51.858;4.398;2023-07-02T13:14:49;10.27;;;4.55;;
40453;SDS011;26160;51.858;4.398;2023-07-02T13:17:15;8.10;;;4.35;;
40453;SDS011;26160;51.858;4.398;2023-07-02T13:19:41;6.85;;;3.60;;
40453;SDS011;26160;51.858;4.398;2023-07-02T13:22:08;9.05;;;4.53;;
40453;SDS011;26160;51.858;4.398;2023-07-02T13:24:34;11.80;;;4.55;;
40453;SDS011;26160;51.858;4.398;2023-07-02T13:27:02;9.93;;;4.22;;
40453;SDS011;26160;51.858;4.398;2023-07-02T13:29:30;12.48;;;4.05;;
40453;SDS011;26160;51.858;4.398;2023-07-02T13:31:56;7.95;;;3.70;;
40453;SDS011;26160;51.858;4.398;2023-07-02T13:34:23;11.73;;;3.97;;
40453;SDS011;26160;51.858;4.398;2023-07-02T13:36:49;7.18;;;4.07;;
40453;SDS011;26160;51.858;4.398;2023-07-02T13:39:16;8.70;;;4.00;;
40453;SDS011;26160;51.858;4.398;2023-07-02T13:41:42;10.02;;;4.50;;
40453;SDS011;26160;51.858;4.398;2023-07-02T13:44:08;9.60;;;3.95;;
40453;SDS011;26160;51.858;4.398;2023-07-02T13:46:34;8.30;;;4.18;;
40453;SDS011;26160;51.858;4.398;2023-07-02T13:49:00;11.38;;;4.38;;
40453;SDS011;26160;51.858;4.398;2023-07-02T13:51:26;7.97;;;4.10;;
40453;SDS011;26160;51.858;4.398;2023-07-02T13:53:53;11.00;;;6.13;;
40453;SDS011;26160;51.858;4.398;2023-07-02T13:56:19;24.92;;;16.58;;
40453;SDS011;26160;51.858;4.398;2023-07-02T14:01:21;15.00;;;7.15;;
40453;SDS011;26160;51.858;4.398;2023-07-02T14:03:48;9.88;;;4.40;;
40453;SDS011;26160;51.858;4.398;2023-07-02T14:06:14;13.10;;;4.50;;
40453;SDS011;26160;51.858;4.398;2023-07-02T14:08:41;11.75;;;4.60;;
40453;SDS011;26160;51.858;4.398;2023-07-02T14:11:07;12.77;;;4.47;;
40453;SDS011;26160;51.858;4.398;2023-07-02T14:13:34;7.80;;;4.13;;
40453;SDS011;26160;51.858;4.398;2023-07-02T14:16:01;8.75;;;3.97;;
40453;SDS011;26160;51.858;4.398;2023-07-02T14:18:27;9.32;;;4.18;;
40453;SDS011;26160;51.858;4.398;2023-07-02T14:20:54;9.50;;;3.97;;
40453;SDS011;26160;51.858;4.398;2023-07-02T14:23:20;8.10;;;4.53;;
40453;SDS011;26160;51.858;4.398;2023-07-02T14:25:47;10.43;;;4.35;;
40453;SDS011;26160;51.858;4.398;2023-07-02T14:28:13;9.15;;;4.20;;
40453;SDS011;26160;51.858;4.398;2023-07-02T14:30:39;7.47;;;3.95;;
40453;SDS011;26160;51.858;4.398;2023-07-02T14:33:08;8.48;;;4.35;;
40453;SDS011;26160;51.858;4.398;2023-07-02T14:35:34;10.30;;;4.65;;
40453;SDS011;26160;51.858;4.398;2023-07-02T14:38:01;8.90;;;4.50;;
40453;SDS011;26160;51.858;4.398;2023-07-02T14:40:27;9.30;;;4.55;;
40453;SDS011;26160;51.858;4.398;2023-07-02T14:42:53;12.45;;;4.80;;
40453;SDS011;26160;51.858;4.398;2023-07-02T14:45:20;10.70;;;4.63;;
40453;SDS011;26160;51.858;4.398;2023-07-02T14:47:46;8.40;;;4.68;;
40453;SDS011;26160;51.858;4.398;2023-07-02T14:50:12;10.32;;;4.97;;
40453;SDS011;26160;51.858;4.398;2023-07-02T14:52:38;9.48;;;4.97;;
40453;SDS011;26160;51.858;4.398;2023-07-02T14:55:05;12.15;;;4.93;;